Clearwater, British Columbia

Past 24 Hour Conditions

Date / Time
(PDT)
Conditions Temp
(°F)
Humidity
(%)
Dew Point
(°F)
Wind
(mph)
Pressure
(inches)
Visibility
(miles)
20 October 2014
14:00 N/A 64 51 45 WSW 2 29.6 N/A
13:00 N/A 61 59 47 WNW 2 29.6 N/A
12:00 N/A 59 72 50 SW 3 29.6 N/A
11:00 N/A 57 75 49 calm 29.6 N/A
10:00 N/A 54   87 50 NNW 3 29.6 N/A
9:00 N/A 54   86 50 calm 29.6 N/A
8:00 N/A 54   79 48 NNW 3 29.6 N/A
7:00 N/A 55 72 47 NW 2 29.6 N/A
6:00 N/A 57 68 46 W 4 29.6 N/A
5:00 N/A 56 68 45 calm 29.6 N/A
4:00 N/A 58 62 45 calm 29.6 N/A
3:00 N/A 60 55 44 WNW 4 29.6 N/A
2:00 N/A 60 57 45 NW 2 29.6 N/A
1:00 N/A 58 64 46 SE 4 29.6 N/A
00:00 N/A 59 64 47 SW 3 29.6 N/A
19 October 2014
23:00 N/A 60 60 46 WNW 2 29.6 N/A
22:00 N/A 62 56 46 NW 3 29.6 N/A
21:00 N/A 64 49 45 ESE 2 29.6 N/A
20:00 N/A 66 45 44 NW 3 29.6 N/A
19:00 N/A 68 41 43 ESE 7 29.5 N/A
18:00 N/A 68 40 43 ESE 5 29.6 N/A
17:00 N/A 69   40 44 ESE 8 29.6 N/A
16:00 N/A 68 41 44 E 9 29.6 N/A
15:00 N/A 68 42 44 ESE 6 29.6 N/A
14:00 N/A 69   40 44 ESE 5 29.6 N/A
N/A Not available
↑ Highest temperature
↓ Lowest temperature

If you require additional historical weather information, please visit Climate Data Online.

Date modified: